sensor_id;sensor_type;location;lat;lon;timestamp;temperature;humidity
66343;DHT22;53144;51.524;5.080;2022-08-20T00:00:50;18.92;97.48
66343;DHT22;53144;51.524;5.080;2022-08-20T00:03:27;18.92;97.46
66343;DHT22;53144;51.524;5.080;2022-08-20T00:06:00;18.94;97.38
66343;DHT22;53144;51.524;5.080;2022-08-20T00:08:27;18.94;97.37
66343;DHT22;53144;51.524;5.080;2022-08-20T00:10:53;18.91;97.36
66343;DHT22;53144;51.524;5.080;2022-08-20T00:13:23;18.91;97.46
66343;DHT22;53144;51.524;5.080;2022-08-20T00:15:49;18.94;97.58
66343;DHT22;53144;51.524;5.080;2022-08-20T00:18:15;18.92;97.45
66343;DHT22;53144;51.524;5.080;2022-08-20T00:20:44;19.00;97.74
66343;DHT22;53144;51.524;5.080;2022-08-20T00:23:10;18.99;97.35
66343;DHT22;53144;51.524;5.080;2022-08-20T00:25:36;18.96;97.59
66343;DHT22;53144;51.524;5.080;2022-08-20T00:28:02;19.00;97.63
66343;DHT22;53144;51.524;5.080;2022-08-20T00:30:28;19.02;97.41
66343;DHT22;53144;51.524;5.080;2022-08-20T00:32:56;19.06;96.87
66343;DHT22;53144;51.524;5.080;2022-08-20T00:35:25;19.05;97.16
66343;DHT22;53144;51.524;5.080;2022-08-20T00:37:51;19.00;97.41
66343;DHT22;53144;51.524;5.080;2022-08-20T00:40:22;18.96;97.59
66343;DHT22;53144;51.524;5.080;2022-08-20T00:42:54;18.98;97.69
66343;DHT22;53144;51.524;5.080;2022-08-20T00:45:26;18.98;97.55
66343;DHT22;53144;51.524;5.080;2022-08-20T00:47:52;18.96;97.55
66343;DHT22;53144;51.524;5.080;2022-08-20T00:50:23;19.00;97.20
66343;DHT22;53144;51.524;5.080;2022-08-20T00:52:50;18.99;96.98
66343;DHT22;53144;51.524;5.080;2022-08-20T00:55:20;19.00;96.87
66343;DHT22;53144;51.524;5.080;2022-08-20T00:57:50;18.98;96.88
66343;DHT22;53144;51.524;5.080;2022-08-20T01:00:40;18.98;96.98
66343;DHT22;53144;51.524;5.080;2022-08-20T01:03:08;18.92;97.26
66343;DHT22;53144;51.524;5.080;2022-08-20T01:05:36;18.94;97.18
66343;DHT22;53144;51.524;5.080;2022-08-20T01:08:02;18.89;96.96
66343;DHT22;53144;51.524;5.080;2022-08-20T01:10:33;18.87;97.17
66343;DHT22;53144;51.524;5.080;2022-08-20T01:12:59;18.84;97.05
66343;DHT22;53144;51.524;5.080;2022-08-20T01:15:29;18.76;97.16
66343;DHT22;53144;51.524;5.080;2022-08-20T01:17:57;18.76;97.07
66343;DHT22;53144;51.524;5.080;2022-08-20T01:20:59;18.73;97.05
66343;DHT22;53144;51.524;5.080;2022-08-20T01:23:45;18.65;97.31
66343;DHT22;53144;51.524;5.080;2022-08-20T01:28:56;18.57;97.55
66343;DHT22;53144;51.524;5.080;2022-08-20T01:31:26;18.58;97.48
66343;DHT22;53144;51.524;5.080;2022-08-20T01:33:52;18.55;97.39
66343;DHT22;53144;51.524;5.080;2022-08-20T01:36:24;18.45;97.39
66343;DHT22;53144;51.524;5.080;2022-08-20T01:38:50;18.38;97.60
66343;DHT22;53144;51.524;5.080;2022-08-20T01:41:29;18.40;97.54
66343;DHT22;53144;51.524;5.080;2022-08-20T01:43:59;18.37;97.33
66343;DHT22;53144;51.524;5.080;2022-08-20T01:46:31;18.36;97.33
66343;DHT22;53144;51.524;5.080;2022-08-20T01:48:59;18.33;97.35
66343;DHT22;53144;51.524;5.080;2022-08-20T01:51:31;18.23;97.63
66343;DHT22;53144;51.524;5.080;2022-08-20T01:53:57;18.18;97.71
66343;DHT22;53144;51.524;5.080;2022-08-20T01:56:27;18.18;97.67
66343;DHT22;53144;51.524;5.080;2022-08-20T01:58:55;18.11;97.71
66343;DHT22;53144;51.524;5.080;2022-08-20T02:01:28;18.10;97.85
66343;DHT22;53144;51.524;5.080;2022-08-20T02:03:55;18.06;97.83
66343;DHT22;53144;51.524;5.080;2022-08-20T02:06:22;17.96;97.64
66343;DHT22;53144;51.524;5.080;2022-08-20T02:08:51;18.00;97.95
66343;DHT22;53144;51.524;5.080;2022-08-20T02:11:17;17.99;97.96
66343;DHT22;53144;51.524;5.080;2022-08-20T02:13:43;17.94;98.01
66343;DHT22;53144;51.524;5.080;2022-08-20T02:16:08;18.03;98.00
66343;DHT22;53144;51.524;5.080;2022-08-20T02:18:34;18.11;97.71
66343;DHT22;53144;51.524;5.080;2022-08-20T02:20:59;18.13;97.54
66343;DHT22;53144;51.524;5.080;2022-08-20T02:23:25;18.11;98.01
66343;DHT22;53144;51.524;5.080;2022-08-20T02:25:51;18.13;98.01
66343;DHT22;53144;51.524;5.080;2022-08-20T02:28:17;18.21;97.57
66343;DHT22;53144;51.524;5.080;2022-08-20T02:30:48;18.26;97.53
66343;DHT22;53144;51.524;5.080;2022-08-20T02:33:15;18.21;97.32
66343;DHT22;53144;51.524;5.080;2022-08-20T02:35:44;18.21;97.65
66343;DHT22;53144;51.524;5.080;2022-08-20T02:38:10;18.18;97.56
66343;DHT22;53144;51.524;5.080;2022-08-20T02:40:36;18.17;97.20
66343;DHT22;53144;51.524;5.080;2022-08-20T02:43:03;18.17;96.84
66343;DHT22;53144;51.524;5.080;2022-08-20T02:45:30;18.18;96.67
66343;DHT22;53144;51.524;5.080;2022-08-20T02:47:56;18.11;96.88
66343;DHT22;53144;51.524;5.080;2022-08-20T02:50:24;18.09;96.95
66343;DHT22;53144;51.524;5.080;2022-08-20T02:52:50;18.02;97.27
66343;DHT22;53144;51.524;5.080;2022-08-20T02:55:16;17.93;97.12
66343;DHT22;53144;51.524;5.080;2022-08-20T02:57:43;17.82;96.99
66343;DHT22;53144;51.524;5.080;2022-08-20T03:00:15;17.75;96.99
66343;DHT22;53144;51.524;5.080;2022-08-20T03:02:42;17.73;96.68
66343;DHT22;53144;51.524;5.080;2022-08-20T03:05:08;17.69;96.99
66343;DHT22;53144;51.524;5.080;2022-08-20T03:07:44;17.65;96.68
66343;DHT22;53144;51.524;5.080;2022-08-20T03:10:11;17.51;96.98
66343;DHT22;53144;51.524;5.080;2022-08-20T03:12:39;17.53;96.88
66343;DHT22;53144;51.524;5.080;2022-08-20T03:15:07;17.42;97.01
66343;DHT22;53144;51.524;5.080;2022-08-20T03:17:34;17.38;97.27
66343;DHT22;53144;51.524;5.080;2022-08-20T03:19:59;17.41;97.24
66343;DHT22;53144;51.524;5.080;2022-08-20T03:22:24;17.36;97.31
66343;DHT22;53144;51.524;5.080;2022-08-20T03:24:50;17.41;97.54
66343;DHT22;53144;51.524;5.080;2022-08-20T03:27:15;17.46;97.51
66343;DHT22;53144;51.524;5.080;2022-08-20T03:29:41;17.44;96.82
66343;DHT22;53144;51.524;5.080;2022-08-20T03:32:06;17.44;96.87
66343;DHT22;53144;51.524;5.080;2022-08-20T03:34:31;17.45;96.59
66343;DHT22;53144;51.524;5.080;2022-08-20T03:36:57;17.45;96.56
66343;DHT22;53144;51.524;5.080;2022-08-20T03:39:22;17.44;96.13
66343;DHT22;53144;51.524;5.080;2022-08-20T03:41:47;17.45;96.56
66343;DHT22;53144;51.524;5.080;2022-08-20T03:44:13;17.46;96.75
66343;DHT22;53144;51.524;5.080;2022-08-20T03:46:38;17.36;96.57
66343;DHT22;53144;51.524;5.080;2022-08-20T03:49:04;17.35;96.97
66343;DHT22;53144;51.524;5.080;2022-08-20T03:51:31;17.38;97.00
66343;DHT22;53144;51.524;5.080;2022-08-20T03:53:57;17.39;96.59
66343;DHT22;53144;51.524;5.080;2022-08-20T03:56:22;17.36;97.03
66343;DHT22;53144;51.524;5.080;2022-08-20T03:58:48;17.32;97.03
66343;DHT22;53144;51.524;5.080;2022-08-20T04:01:13;17.34;97.02
66343;DHT22;53144;51.524;5.080;2022-08-20T04:03:38;17.32;96.90
66343;DHT22;53144;51.524;5.080;2022-08-20T04:06:04;17.28;97.10
66343;DHT22;53144;51.524;5.080;2022-08-20T04:08:29;17.34;96.95
66343;DHT22;53144;51.524;5.080;2022-08-20T04:10:56;17.38;97.01
66343;DHT22;53144;51.524;5.080;2022-08-20T04:13:23;17.32;96.90
66343;DHT22;53144;51.524;5.080;2022-08-20T04:15:49;17.32;96.88
66343;DHT22;53144;51.524;5.080;2022-08-20T04:18:16;17.34;96.91
66343;DHT22;53144;51.524;5.080;2022-08-20T04:20:47;17.35;97.02
66343;DHT22;53144;51.524;5.080;2022-08-20T04:23:13;17.44;97.00
66343;DHT22;53144;51.524;5.080;2022-08-20T04:25:39;17.42;96.78
66343;DHT22;53144;51.524;5.080;2022-08-20T04:28:07;17.41;96.71
66343;DHT22;53144;51.524;5.080;2022-08-20T04:30:32;17.38;96.95
66343;DHT22;53144;51.524;5.080;2022-08-20T04:32:58;17.24;96.90
66343;DHT22;53144;51.524;5.080;2022-08-20T04:35:25;17.24;96.96
66343;DHT22;53144;51.524;5.080;2022-08-20T04:38:05;17.25;96.95
66343;DHT22;53144;51.524;5.080;2022-08-20T04:40:31;17.27;96.99
66343;DHT22;53144;51.524;5.080;2022-08-20T04:43:15;17.22;97.18
66343;DHT22;53144;51.524;5.080;2022-08-20T04:45:41;17.22;97.35
66343;DHT22;53144;51.524;5.080;2022-08-20T04:48:07;17.27;97.32
66343;DHT22;53144;51.524;5.080;2022-08-20T04:50:34;17.31;97.37
66343;DHT22;53144;51.524;5.080;2022-08-20T04:53:02;17.24;97.04
66343;DHT22;53144;51.524;5.080;2022-08-20T04:55:27;17.17;97.22
66343;DHT22;53144;51.524;5.080;2022-08-20T04:57:53;17.13;97.25
66343;DHT22;53144;51.524;5.080;2022-08-20T05:00:20;17.11;97.09
66343;DHT22;53144;51.524;5.080;2022-08-20T05:02:45;17.10;97.14
66343;DHT22;53144;51.524;5.080;2022-08-20T05:05:11;17.06;97.26
66343;DHT22;53144;51.524;5.080;2022-08-20T05:07:42;17.03;97.34
66343;DHT22;53144;51.524;5.080;2022-08-20T05:10:11;17.11;97.59
66343;DHT22;53144;51.524;5.080;2022-08-20T05:12:41;17.14;97.86
66343;DHT22;53144;51.524;5.080;2022-08-20T05:15:08;17.20;97.85
66343;DHT22;53144;51.524;5.080;2022-08-20T05:17:41;17.24;97.99
66343;DHT22;53144;51.524;5.080;2022-08-20T05:20:09;17.22;97.72
66343;DHT22;53144;51.524;5.080;2022-08-20T05:22:35;17.27;97.78
66343;DHT22;53144;51.524;5.080;2022-08-20T05:25:01;17.24;97.54
66343;DHT22;53144;51.524;5.080;2022-08-20T05:27:30;17.38;97.54
66343;DHT22;53144;51.524;5.080;2022-08-20T05:30:05;17.46;97.44
66343;DHT22;53144;51.524;5.080;2022-08-20T05:32:34;17.49;96.98
66343;DHT22;53144;51.524;5.080;2022-08-20T05:35:00;17.48;96.33
66343;DHT22;53144;51.524;5.080;2022-08-20T05:37:26;17.56;96.30
66343;DHT22;53144;51.524;5.080;2022-08-20T05:39:52;17.48;96.49
66343;DHT22;53144;51.524;5.080;2022-08-20T05:42:18;17.45;96.76
66343;DHT22;53144;51.524;5.080;2022-08-20T05:44:43;17.46;96.82
66343;DHT22;53144;51.524;5.080;2022-08-20T05:47:10;17.48;97.01
66343;DHT22;53144;51.524;5.080;2022-08-20T05:49:36;17.51;96.68
66343;DHT22;53144;51.524;5.080;2022-08-20T05:52:02;17.48;96.52
66343;DHT22;53144;51.524;5.080;2022-08-20T05:54:28;17.48;96.65
66343;DHT22;53144;51.524;5.080;2022-08-20T05:56:53;17.48;96.79
66343;DHT22;53144;51.524;5.080;2022-08-20T05:59:20;17.53;96.62
66343;DHT22;53144;51.524;5.080;2022-08-20T06:01:46;17.58;96.96
66343;DHT22;53144;51.524;5.080;2022-08-20T06:04:12;17.62;96.62
66343;DHT22;53144;51.524;5.080;2022-08-20T06:07:02;17.71;96.59
66343;DHT22;53144;51.524;5.080;2022-08-20T06:09:28;17.82;96.53
66343;DHT22;53144;51.524;5.080;2022-08-20T06:11:54;17.89;96.80
66343;DHT22;53144;51.524;5.080;2022-08-20T06:14:19;17.87;96.48
66343;DHT22;53144;51.524;5.080;2022-08-20T06:16:45;17.87;96.09
66343;DHT22;53144;51.524;5.080;2022-08-20T06:19:11;17.87;96.65
66343;DHT22;53144;51.524;5.080;2022-08-20T06:21:37;17.81;96.07
66343;DHT22;53144;51.524;5.080;2022-08-20T06:24:04;17.86;96.38
66343;DHT22;53144;51.524;5.080;2022-08-20T06:26:30;17.99;96.13
66343;DHT22;53144;51.524;5.080;2022-08-20T06:28:56;18.00;95.77
66343;DHT22;53144;51.524;5.080;2022-08-20T06:31:22;17.89;96.07
66343;DHT22;53144;51.524;5.080;2022-08-20T06:33:47;17.94;95.56
66343;DHT22;53144;51.524;5.080;2022-08-20T06:36:12;17.99;95.52
66343;DHT22;53144;51.524;5.080;2022-08-20T06:38:38;18.04;95.80
66343;DHT22;53144;51.524;5.080;2022-08-20T06:41:04;18.17;95.69
66343;DHT22;53144;51.524;5.080;2022-08-20T06:43:30;18.13;95.10
66343;DHT22;53144;51.524;5.080;2022-08-20T06:45:55;18.04;95.47
66343;DHT22;53144;51.524;5.080;2022-08-20T06:48:22;18.03;95.59
66343;DHT22;53144;51.524;5.080;2022-08-20T06:50:47;18.02;95.56
66343;DHT22;53144;51.524;5.080;2022-08-20T06:53:16;17.96;95.85
66343;DHT22;53144;51.524;5.080;2022-08-20T06:55:46;17.97;95.98
66343;DHT22;53144;51.524;5.080;2022-08-20T06:58:12;18.23;95.63
66343;DHT22;53144;51.524;5.080;2022-08-20T07:00:40;18.14;95.03
66343;DHT22;53144;51.524;5.080;2022-08-20T07:03:07;18.31;95.70
66343;DHT22;53144;51.524;5.080;2022-08-20T07:05:35;18.31;95.39
66343;DHT22;53144;51.524;5.080;2022-08-20T07:08:01;18.43;94.84
66343;DHT22;53144;51.524;5.080;2022-08-20T07:10:27;18.34;94.91
66343;DHT22;53144;51.524;5.080;2022-08-20T07:12:53;18.21;94.55
66343;DHT22;53144;51.524;5.080;2022-08-20T07:15:20;18.43;94.75
66343;DHT22;53144;51.524;5.080;2022-08-20T07:17:57;18.45;94.26
66343;DHT22;53144;51.524;5.080;2022-08-20T07:20:23;18.51;94.40
66343;DHT22;53144;51.524;5.080;2022-08-20T07:22:48;18.50;94.42
66343;DHT22;53144;51.524;5.080;2022-08-20T07:25:16;18.41;94.45
66343;DHT22;53144;51.524;5.080;2022-08-20T07:27:42;18.60;94.36
66343;DHT22;53144;51.524;5.080;2022-08-20T07:30:11;18.58;94.65
66343;DHT22;53144;51.524;5.080;2022-08-20T07:32:55;18.60;94.06
66343;DHT22;53144;51.524;5.080;2022-08-20T07:35:22;18.69;93.38
66343;DHT22;53144;51.524;5.080;2022-08-20T07:37:49;18.65;93.22
66343;DHT22;53144;51.524;5.080;2022-08-20T07:40:23;18.75;93.38
66343;DHT22;53144;51.524;5.080;2022-08-20T07:42:49;18.81;93.31
66343;DHT22;53144;51.524;5.080;2022-08-20T07:45:16;18.88;93.31
66343;DHT22;53144;51.524;5.080;2022-08-20T07:47:44;18.89;93.98
66343;DHT22;53144;51.524;5.080;2022-08-20T07:50:12;18.88;92.92
66343;DHT22;53144;51.524;5.080;2022-08-20T07:52:38;18.95;92.58
66343;DHT22;53144;51.524;5.080;2022-08-20T07:55:10;19.06;92.88
66343;DHT22;53144;51.524;5.080;2022-08-20T07:57:36;19.08;93.52
66343;DHT22;53144;51.524;5.080;2022-08-20T08:00:04;18.88;92.69
66343;DHT22;53144;51.524;5.080;2022-08-20T08:02:31;18.76;93.00
66343;DHT22;53144;51.524;5.080;2022-08-20T08:04:56;19.19;93.92
66343;DHT22;53144;51.524;5.080;2022-08-20T08:07:22;19.34;92.41
66343;DHT22;53144;51.524;5.080;2022-08-20T08:09:50;19.36;91.12
66343;DHT22;53144;51.524;5.080;2022-08-20T08:12:16;19.43;91.64
66343;DHT22;53144;51.524;5.080;2022-08-20T08:14:43;19.24;90.80
66343;DHT22;53144;51.524;5.080;2022-08-20T08:17:11;19.49;90.70
66343;DHT22;53144;51.524;5.080;2022-08-20T08:19:40;19.34;90.99
66343;DHT22;53144;51.524;5.080;2022-08-20T08:22:11;19.47;91.27
66343;DHT22;53144;51.524;5.080;2022-08-20T08:24:39;19.64;90.92
66343;DHT22;53144;51.524;5.080;2022-08-20T08:27:04;19.50;90.50
66343;DHT22;53144;51.524;5.080;2022-08-20T08:29:33;19.53;90.13
66343;DHT22;53144;51.524;5.080;2022-08-20T08:32:00;19.51;90.08
66343;DHT22;53144;51.524;5.080;2022-08-20T08:34:26;19.64;88.73
66343;DHT22;53144;51.524;5.080;2022-08-20T08:36:51;19.63;89.13
66343;DHT22;53144;51.524;5.080;2022-08-20T08:39:18;19.88;90.33
66343;DHT22;53144;51.524;5.080;2022-08-20T08:41:48;20.07;87.73
66343;DHT22;53144;51.524;5.080;2022-08-20T08:46:53;20.39;87.81
66343;DHT22;53144;51.524;5.080;2022-08-20T08:49:28;20.29;87.42
66343;DHT22;53144;51.524;5.080;2022-08-20T08:52:03;20.19;87.48
66343;DHT22;53144;51.524;5.080;2022-08-20T08:54:32;20.15;87.28
66343;DHT22;53144;51.524;5.080;2022-08-20T08:56:59;20.18;85.52
66343;DHT22;53144;51.524;5.080;2022-08-20T08:59:27;20.35;84.61
66343;DHT22;53144;51.524;5.080;2022-08-20T09:01:55;20.37;86.08
66343;DHT22;53144;51.524;5.080;2022-08-20T09:04:32;20.50;85.40
66343;DHT22;53144;51.524;5.080;2022-08-20T09:06:58;20.83;85.30
66343;DHT22;53144;51.524;5.080;2022-08-20T09:09:32;21.01;83.15
66343;DHT22;53144;51.524;5.080;2022-08-20T09:12:10;20.81;79.82
66343;DHT22;53144;51.524;5.080;2022-08-20T09:14:36;20.55;80.06
66343;DHT22;53144;51.524;5.080;2022-08-20T09:17:03;20.60;79.68
66343;DHT22;53144;51.524;5.080;2022-08-20T09:19:28;20.37;80.96
66343;DHT22;53144;51.524;5.080;2022-08-20T09:21:54;20.35;79.48
66343;DHT22;53144;51.524;5.080;2022-08-20T09:24:20;20.42;81.15
66343;DHT22;53144;51.524;5.080;2022-08-20T09:26:45;20.55;80.41
66343;DHT22;53144;51.524;5.080;2022-08-20T09:29:11;20.67;77.43
66343;DHT22;53144;51.524;5.080;2022-08-20T09:31:37;20.63;76.85
66343;DHT22;53144;51.524;5.080;2022-08-20T09:34:02;20.72;76.26
66343;DHT22;53144;51.524;5.080;2022-08-20T09:36:28;20.87;76.48
66343;DHT22;53144;51.524;5.080;2022-08-20T09:38:53;20.98;67.34
66343;DHT22;53144;51.524;5.080;2022-08-20T09:41:19;20.93;71.68
66343;DHT22;53144;51.524;5.080;2022-08-20T09:43:44;21.20;74.41
66343;DHT22;53144;51.524;5.080;2022-08-20T09:46:10;21.42;71.49
66343;DHT22;53144;51.524;5.080;2022-08-20T09:48:35;21.56;71.68
66343;DHT22;53144;51.524;5.080;2022-08-20T09:51:01;21.53;69.24
66343;DHT22;53144;51.524;5.080;2022-08-20T09:53:26;21.49;67.93
66343;DHT22;53144;51.524;5.080;2022-08-20T09:55:53;21.63;65.48
66343;DHT22;53144;51.524;5.080;2022-08-20T09:58:40;21.81;68.87
66343;DHT22;53144;51.524;5.080;2022-08-20T10:01:13;21.56;70.35
66343;DHT22;53144;51.524;5.080;2022-08-20T10:03:40;21.73;69.76
66343;DHT22;53144;51.524;5.080;2022-08-20T10:06:06;22.07;65.16
66343;DHT22;53144;51.524;5.080;2022-08-20T10:08:31;22.91;65.70
66343;DHT22;53144;51.524;5.080;2022-08-20T10:10:57;23.66;62.46
66343;DHT22;53144;51.524;5.080;2022-08-20T10:13:22;24.59;61.90
66343;DHT22;53144;51.524;5.080;2022-08-20T10:15:47;25.17;56.47
66343;DHT22;53144;51.524;5.080;2022-08-20T10:18:13;25.27;53.93
66343;DHT22;53144;51.524;5.080;2022-08-20T10:20:38;25.52;57.97
66343;DHT22;53144;51.524;5.080;2022-08-20T10:23:04;25.39;54.85
66343;DHT22;53144;51.524;5.080;2022-08-20T10:25:29;26.14;54.04
66343;DHT22;53144;51.524;5.080;2022-08-20T10:27:55;26.26;53.49
66343;DHT22;53144;51.524;5.080;2022-08-20T10:30:20;26.00;51.26
66343;DHT22;53144;51.524;5.080;2022-08-20T10:32:46;25.14;54.21
66343;DHT22;53144;51.524;5.080;2022-08-20T10:35:12;25.59;51.45
66343;DHT22;53144;51.524;5.080;2022-08-20T10:37:37;24.18;55.91
66343;DHT22;53144;51.524;5.080;2022-08-20T10:40:03;23.46;57.26
66343;DHT22;53144;51.524;5.080;2022-08-20T10:42:29;22.96;57.59
66343;DHT22;53144;51.524;5.080;2022-08-20T10:44:54;23.09;58.47
66343;DHT22;53144;51.524;5.080;2022-08-20T10:47:27;22.65;59.17
66343;DHT22;53144;51.524;5.080;2022-08-20T10:49:55;22.48;58.45
66343;DHT22;53144;51.524;5.080;2022-08-20T10:52:21;22.33;59.31
66343;DHT22;53144;51.524;5.080;2022-08-20T10:54:46;23.91;58.49
66343;DHT22;53144;51.524;5.080;2022-08-20T10:57:20;25.31;53.66
66343;DHT22;53144;51.524;5.080;2022-08-20T10:59:47;25.44;51.16
66343;DHT22;53144;51.524;5.080;2022-08-20T11:02:13;24.70;52.20
66343;DHT22;53144;51.524;5.080;2022-08-20T11:04:38;25.54;52.52
66343;DHT22;53144;51.524;5.080;2022-08-20T11:09:36;26.29;51.14
66343;DHT22;53144;51.524;5.080;2022-08-20T11:12:02;25.92;51.85
66343;DHT22;53144;51.524;5.080;2022-08-20T11:14:28;25.54;49.43
66343;DHT22;53144;51.524;5.080;2022-08-20T11:16:53;26.60;51.36
66343;DHT22;53144;51.524;5.080;2022-08-20T11:19:19;26.77;51.32
66343;DHT22;53144;51.524;5.080;2022-08-20T11:21:44;24.21;51.68
66343;DHT22;53144;51.524;5.080;2022-08-20T11:24:10;24.90;52.39
66343;DHT22;53144;51.524;5.080;2022-08-20T11:26:35;25.90;49.17
66343;DHT22;53144;51.524;5.080;2022-08-20T11:29:00;26.36;51.82
66343;DHT22;53144;51.524;5.080;2022-08-20T11:31:26;26.03;45.66
66343;DHT22;53144;51.524;5.080;2022-08-20T11:33:51;26.19;48.42
66343;DHT22;53144;51.524;5.080;2022-08-20T11:36:16;26.81;47.97
66343;DHT22;53144;51.524;5.080;2022-08-20T11:38:42;28.08;45.34
66343;DHT22;53144;51.524;5.080;2022-08-20T11:41:07;28.65;41.56
66343;DHT22;53144;51.524;5.080;2022-08-20T11:43:32;28.52;45.95
66343;DHT22;53144;51.524;5.080;2022-08-20T11:45:58;29.28;42.89
66343;DHT22;53144;51.524;5.080;2022-08-20T11:48:23;26.78;46.65
66343;DHT22;53144;51.524;5.080;2022-08-20T11:50:50;25.42;49.89
66343;DHT22;53144;51.524;5.080;2022-08-20T11:53:15;25.42;49.20
66343;DHT22;53144;51.524;5.080;2022-08-20T11:55:41;25.33;48.18
66343;DHT22;53144;51.524;5.080;2022-08-20T11:58:08;25.37;48.41
66343;DHT22;53144;51.524;5.080;2022-08-20T12:00:34;25.45;47.39
66343;DHT22;53144;51.524;5.080;2022-08-20T12:03:01;26.64;47.24
66343;DHT22;53144;51.524;5.080;2022-08-20T12:05:29;26.40;47.20
66343;DHT22;53144;51.524;5.080;2022-08-20T12:07:54;27.78;45.85
66343;DHT22;53144;51.524;5.080;2022-08-20T12:10:20;27.64;46.53
66343;DHT22;53144;51.524;5.080;2022-08-20T12:12:47;26.88;46.50
66343;DHT22;53144;51.524;5.080;2022-08-20T12:15:12;25.89;46.61
66343;DHT22;53144;51.524;5.080;2022-08-20T12:17:38;24.39;51.00
66343;DHT22;53144;51.524;5.080;2022-08-20T12:20:09;23.53;51.64
66343;DHT22;53144;51.524;5.080;2022-08-20T12:22:35;23.43;52.67
66343;DHT22;53144;51.524;5.080;2022-08-20T12:25:00;23.49;54.77
66343;DHT22;53144;51.524;5.080;2022-08-20T12:27:28;23.18;54.56
66343;DHT22;53144;51.524;5.080;2022-08-20T12:29:56;24.65;53.27
66343;DHT22;53144;51.524;5.080;2022-08-20T12:32:26;25.61;49.32
66343;DHT22;53144;51.524;5.080;2022-08-20T12:34:53;25.92;46.81
66343;DHT22;53144;51.524;5.080;2022-08-20T12:37:21;27.19;46.20
66343;DHT22;53144;51.524;5.080;2022-08-20T12:39:49;27.26;45.52
66343;DHT22;53144;51.524;5.080;2022-08-20T12:42:15;28.08;44.20
66343;DHT22;53144;51.524;5.080;2022-08-20T12:44:41;28.82;44.31
66343;DHT22;53144;51.524;5.080;2022-08-20T12:47:08;27.73;42.80
66343;DHT22;53144;51.524;5.080;2022-08-20T12:49:35;27.50;44.02
66343;DHT22;53144;51.524;5.080;2022-08-20T12:52:00;26.95;45.29
66343;DHT22;53144;51.524;5.080;2022-08-20T12:54:26;27.06;44.83
66343;DHT22;53144;51.524;5.080;2022-08-20T12:56:51;26.98;46.17
66343;DHT22;53144;51.524;5.080;2022-08-20T12:59:17;26.54;50.25
66343;DHT22;53144;51.524;5.080;2022-08-20T13:01:43;26.14;47.11
66343;DHT22;53144;51.524;5.080;2022-08-20T13:04:08;25.04;50.76
66343;DHT22;53144;51.524;5.080;2022-08-20T13:06:33;24.55;53.40
66343;DHT22;53144;51.524;5.080;2022-08-20T13:08:59;24.26;54.74
66343;DHT22;53144;51.524;5.080;2022-08-20T13:11:24;23.89;55.80
66343;DHT22;53144;51.524;5.080;2022-08-20T13:13:50;24.18;57.04
66343;DHT22;53144;51.524;5.080;2022-08-20T13:16:15;24.02;55.96
66343;DHT22;53144;51.524;5.080;2022-08-20T13:18:41;23.98;57.80
66343;DHT22;53144;51.524;5.080;2022-08-20T13:21:06;23.70;56.42
66343;DHT22;53144;51.524;5.080;2022-08-20T13:23:32;23.42;55.76
66343;DHT22;53144;51.524;5.080;2022-08-20T13:25:57;23.58;55.79
66343;DHT22;53144;51.524;5.080;2022-08-20T13:28:23;23.66;58.12
66343;DHT22;53144;51.524;5.080;2022-08-20T13:30:48;23.74;58.76
66343;DHT22;53144;51.524;5.080;2022-08-20T13:33:14;24.07;58.20
66343;DHT22;53144;51.524;5.080;2022-08-20T13:35:39;25.11;54.52
66343;DHT22;53144;51.524;5.080;2022-08-20T13:38:05;25.88;54.81
66343;DHT22;53144;51.524;5.080;2022-08-20T13:40:30;26.40;52.49
66343;DHT22;53144;51.524;5.080;2022-08-20T13:42:56;24.11;55.39
66343;DHT22;53144;51.524;5.080;2022-08-20T13:45:21;23.66;58.88
66343;DHT22;53144;51.524;5.080;2022-08-20T13:47:51;23.58;60.81
66343;DHT22;53144;51.524;5.080;2022-08-20T13:50:18;23.40;60.23
66343;DHT22;53144;51.524;5.080;2022-08-20T13:52:44;22.92;60.10
66343;DHT22;53144;51.524;5.080;2022-08-20T13:55:12;23.09;61.36
66343;DHT22;53144;51.524;5.080;2022-08-20T13:57:38;23.18;61.67
66343;DHT22;53144;51.524;5.080;2022-08-20T14:00:06;23.22;61.45
66343;DHT22;53144;51.524;5.080;2022-08-20T14:02:34;23.63;60.39
66343;DHT22;53144;51.524;5.080;2022-08-20T14:04:59;23.61;60.04
66343;DHT22;53144;51.524;5.080;2022-08-20T14:07:27;23.18;60.02
66343;DHT22;53144;51.524;5.080;2022-08-20T14:09:58;22.67;60.83
66343;DHT22;53144;51.524;5.080;2022-08-20T14:12:25;22.95;63.02
66343;DHT22;53144;51.524;5.080;2022-08-20T14:14:52;23.10;60.89
66343;DHT22;53144;51.524;5.080;2022-08-20T14:17:19;22.82;61.94
66343;DHT22;53144;51.524;5.080;2022-08-20T14:19:47;22.69;61.29
66343;DHT22;53144;51.524;5.080;2022-08-20T14:22:13;22.98;62.74
66343;DHT22;53144;51.524;5.080;2022-08-20T14:24:39;23.16;60.68
66343;DHT22;53144;51.524;5.080;2022-08-20T14:27:06;23.13;61.94
66343;DHT22;53144;51.524;5.080;2022-08-20T14:29:33;22.94;61.32
66343;DHT22;53144;51.524;5.080;2022-08-20T14:31:59;22.81;61.63
66343;DHT22;53144;51.524;5.080;2022-08-20T14:34:24;22.67;61.26
66343;DHT22;53144;51.524;5.080;2022-08-20T14:36:50;22.87;61.12
66343;DHT22;53144;51.524;5.080;2022-08-20T14:39:15;22.92;61.01
66343;DHT22;53144;51.524;5.080;2022-08-20T14:41:40;22.96;60.42
66343;DHT22;53144;51.524;5.080;2022-08-20T14:44:06;23.03;60.41
66343;DHT22;53144;51.524;5.080;2022-08-20T14:46:31;23.03;60.61
66343;DHT22;53144;51.524;5.080;2022-08-20T14:48:56;22.62;60.11
66343;DHT22;53144;51.524;5.080;2022-08-20T14:51:22;22.79;59.74
66343;DHT22;53144;51.524;5.080;2022-08-20T14:53:47;23.08;60.55
66343;DHT22;53144;51.524;5.080;2022-08-20T14:56:12;23.37;59.33
66343;DHT22;53144;51.524;5.080;2022-08-20T14:58:39;23.31;59.61
66343;DHT22;53144;51.524;5.080;2022-08-20T15:01:05;23.46;59.74
66343;DHT22;53144;51.524;5.080;2022-08-20T15:03:30;23.10;59.10
66343;DHT22;53144;51.524;5.080;2022-08-20T15:05:57;22.94;59.98
66343;DHT22;53144;51.524;5.080;2022-08-20T15:08:22;22.82;60.29
66343;DHT22;53144;51.524;5.080;2022-08-20T15:10:48;22.79;60.67
66343;DHT22;53144;51.524;5.080;2022-08-20T15:13:13;22.88;59.93
66343;DHT22;53144;51.524;5.080;2022-08-20T15:15:38;22.95;60.53
66343;DHT22;53144;51.524;5.080;2022-08-20T15:18:04;22.73;60.43
66343;DHT22;53144;51.524;5.080;2022-08-20T15:20:32;22.37;60.42
66343;DHT22;53144;51.524;5.080;2022-08-20T15:22:57;22.47;60.78
66343;DHT22;53144;51.524;5.080;2022-08-20T15:25:25;22.62;60.25
66343;DHT22;53144;51.524;5.080;2022-08-20T15:27:57;22.88;60.22
66343;DHT22;53144;51.524;5.080;2022-08-20T15:30:23;23.06;59.79
66343;DHT22;53144;51.524;5.080;2022-08-20T15:32:49;23.40;58.48
66343;DHT22;53144;51.524;5.080;2022-08-20T15:35:15;23.10;58.49
66343;DHT22;53144;51.524;5.080;2022-08-20T15:37:43;22.96;59.66